Time;durP1;ratioP1;P1;durP2;ratioP2;P2;SDS_P1;SDS_P2;PMS_P1;PMS_P2;Temp;Humidity;BMP_temperature;BMP_pressure;BME280_temperature;BME280_humidity;BME280_pressure;Samples;Min_cycle;Max_cycle;Signal;HPM_P1;HPM_P2
2023/11/07 00:00:03;;;;;;;2.00;1.33;;;8.60;99.90;;;;;;5034969;28;20889;-87
2023/11/07 00:02:28;;;;;;;2.20;1.42;;;8.20;99.90;;;;;;5042340;28;20992;-87
2023/11/07 00:04:55;;;;;;;1.67;1.40;;;8.40;99.90;;;;;;5039930;28;20194;-87
2023/11/07 00:07:24;;;;;;;2.33;1.58;;;8.30;99.90;;;;;;5023917;28;20272;-87
2023/11/07 00:09:50;;;;;;;1.27;1.17;;;8.20;99.90;;;;;;5038319;28;20185;-87
2023/11/07 00:12:16;;;;;;;2.00;1.70;;;7.90;99.90;;;;;;5036727;28;20878;-87
2023/11/07 00:14:42;;;;;;;1.80;1.52;;;8.20;99.90;;;;;;5042328;28;20212;-87
2023/11/07 00:17:07;;;;;;;1.40;1.30;;;8.00;99.90;;;;;;5034692;28;20182;-87
2023/11/07 00:19:33;;;;;;;1.70;1.50;;;8.40;99.90;;;;;;5038103;28;20609;-87
2023/11/07 00:21:59;;;;;;;2.17;1.60;;;8.10;99.90;;;;;;5037206;28;20468;-87
2023/11/07 00:24:25;;;;;;;2.37;1.63;;;8.30;99.90;;;;;;5043144;28;20228;-87
2023/11/07 00:26:52;;;;;;;3.47;1.65;;;8.40;99.90;;;;;;5034244;28;20218;-87
2023/11/07 00:29:17;;;;;;;2.08;1.77;;;8.00;99.90;;;;;;5020772;28;20186;-87
2023/11/07 00:31:43;;;;;;;1.60;1.50;;;7.80;99.90;;;;;;5041793;28;20181;-87
2023/11/07 00:34:09;;;;;;;2.03;1.50;;;8.30;99.90;;;;;;5036504;28;20217;-87
2023/11/07 00:36:35;;;;;;;2.13;1.33;;;8.20;99.90;;;;;;5020547;28;20621;-87
2023/11/07 00:39:01;;;;;;;2.03;1.70;;;8.20;99.90;;;;;;5036249;28;20423;-87
2023/11/07 00:41:27;;;;;;;2.90;2.20;;;7.70;99.90;;;;;;5021837;28;20301;-87
2023/11/07 00:43:54;;;;;;;1.55;1.40;;;8.20;99.90;;;;;;5038786;28;20466;-87
2023/11/07 00:46:20;;;;;;;2.47;2.38;;;7.80;99.90;;;;;;5026371;28;20242;-87
2023/11/07 00:48:46;;;;;;;2.00;1.47;;;7.80;99.90;;;;;;5042162;28;20182;-87
2023/11/07 00:51:11;;;;;;;1.27;1.10;;;8.20;99.90;;;;;;5044164;28;20482;-87
2023/11/07 00:53:38;;;;;;;4.57;1.53;;;8.00;99.90;;;;;;5024027;28;20714;-87
2023/11/07 00:56:04;;;;;;;1.40;1.30;;;8.20;99.90;;;;;;5034582;28;20292;-87
2023/11/07 00:58:29;;;;;;;1.27;1.05;;;7.90;99.90;;;;;;5038459;28;20639;-87
2023/11/07 01:00:55;;;;;;;2.80;1.37;;;7.90;99.90;;;;;;5033045;28;20248;-87
2023/11/07 01:03:21;;;;;;;1.87;1.60;;;7.60;99.90;;;;;;5035219;28;20202;-87
2023/11/07 01:05:47;;;;;;;1.35;1.25;;;7.60;99.90;;;;;;5022804;28;20178;-87
2023/11/07 01:08:13;;;;;;;1.37;1.10;;;7.40;99.90;;;;;;5017900;28;20561;-87
2023/11/07 01:10:39;;;;;;;1.60;1.45;;;7.60;99.90;;;;;;5025658;28;20182;-87
2023/11/07 01:13:04;;;;;;;1.50;1.40;;;7.60;99.90;;;;;;5034810;28;20206;-87
2023/11/07 01:15:30;;;;;;;3.00;1.93;;;7.50;99.90;;;;;;5023304;28;20194;-87
2023/11/07 01:17:55;;;;;;;1.60;1.50;;;7.30;99.90;;;;;;5038464;28;20182;-87
2023/11/07 01:20:22;;;;;;;1.30;1.20;;;7.60;99.90;;;;;;5022824;28;20186;-87
2023/11/07 01:22:49;;;;;;;1.95;1.50;;;7.30;99.90;;;;;;5040832;28;20214;-87
2023/11/07 01:25:15;;;;;;;1.20;1.10;;;7.20;99.90;;;;;;5025311;28;20206;-87
2023/11/07 01:27:41;;;;;;;1.73;1.30;;;7.40;99.90;;;;;;5022914;28;20181;-87
2023/11/07 01:30:08;;;;;;;2.80;1.50;;;7.50;99.90;;;;;;5021263;28;20185;-87
2023/11/07 01:32:33;;;;;;;1.60;1.40;;;7.40;99.90;;;;;;5025521;28;20190;-87
2023/11/07 01:34:59;;;;;;;1.80;1.30;;;7.60;99.90;;;;;;5036634;28;20213;-87
2023/11/07 01:37:25;;;;;;;2.17;1.50;;;7.60;99.90;;;;;;5020974;28;20233;-87
2023/11/07 01:39:50;;;;;;;1.43;1.20;;;7.30;99.90;;;;;;5034556;28;20289;-87
2023/11/07 01:42:16;;;;;;;1.63;1.50;;;7.40;99.90;;;;;;5035904;28;20217;-87
2023/11/07 01:44:52;;;;;;;1.53;1.20;;;7.50;99.90;;;;;;5023038;28;20217;-87
2023/11/07 01:47:19;;;;;;;1.42;1.20;;;7.60;99.90;;;;;;5040190;28;20166;-87
2023/11/07 01:49:47;;;;;;;1.40;1.30;;;7.50;99.90;;;;;;5040272;28;20674;-87
2023/11/07 01:52:13;;;;;;;1.60;1.38;;;7.10;99.90;;;;;;5023268;28;20742;-86
2023/11/07 01:54:39;;;;;;;2.05;1.30;;;6.80;99.90;;;;;;5021347;28;20245;-87
2023/11/07 01:57:05;;;;;;;2.00;1.50;;;7.30;99.90;;;;;;5037039;28;20186;-87
2023/11/07 01:59:32;;;;;;;1.87;1.23;;;7.10;99.90;;;;;;5034307;28;20187;-87
2023/11/07 02:02:05;;;;;;;1.73;1.20;;;7.00;99.90;;;;;;5031841;28;20205;-87
2023/11/07 02:04:31;;;;;;;3.10;1.38;;;7.70;99.90;;;;;;5035849;28;20221;-87
2023/11/07 02:06:56;;;;;;;1.67;1.50;;;7.70;99.90;;;;;;5021959;28;20632;-88
2023/11/07 02:09:22;;;;;;;1.83;1.33;;;7.50;99.90;;;;;;5013322;28;20232;-88
2023/11/07 02:11:48;;;;;;;1.60;1.50;;;7.20;99.90;;;;;;5039893;28;20183;-83
2023/11/07 02:14:35;;;;;;;3.30;1.70;;;7.60;99.90;;;;;;5015422;28;20675;-89
2023/11/07 02:17:03;;;;;;;2.88;1.02;;;7.50;99.90;;;;;;5012034;28;20194;-91
2023/11/07 02:19:30;;;;;;;1.80;1.40;;;7.20;99.90;;;;;;5037143;28;20186;-90
2023/11/07 02:22:01;;;;;;;2.25;1.38;;;7.60;99.90;;;;;;5050926;28;20215;-91
2023/11/07 02:24:28;;;;;;;1.20;1.10;;;7.60;99.90;;;;;;5014570;28;20213;-90
2023/11/07 02:26:58;;;;;;;2.08;1.38;;;7.00;99.90;;;;;;5013772;28;20182;-91
2023/11/07 02:29:24;;;;;;;1.30;1.20;;;7.40;99.90;;;;;;5015478;28;20222;-90
2023/11/07 02:31:50;;;;;;;2.33;1.58;;;7.50;99.90;;;;;;5033555;28;20186;-90
2023/11/07 02:34:16;;;;;;;2.43;1.50;;;7.20;99.90;;;;;;5037493;28;20275;-88
2023/11/07 02:36:43;;;;;;;2.30;1.25;;;7.00;99.90;;;;;;5011863;28;20510;-89
2023/11/07 02:39:12;;;;;;;1.67;1.05;;;7.60;99.90;;;;;;5016058;28;20178;-88
2023/11/07 02:41:42;;;;;;;2.10;1.42;;;7.60;99.90;;;;;;5031272;28;20786;-89
2023/11/07 02:44:09;;;;;;;2.67;1.15;;;7.40;99.90;;;;;;4998698;28;20202;-89
2023/11/07 02:46:35;;;;;;;1.40;1.30;;;7.30;99.90;;;;;;5018156;28;20186;-88
2023/11/07 02:49:01;;;;;;;1.30;1.20;;;7.60;99.90;;;;;;5026982;28;20179;-89
2023/11/07 02:51:26;;;;;;;1.87;1.10;;;7.30;99.90;;;;;;5033069;28;20194;-89
2023/11/07 02:53:53;;;;;;;1.30;1.20;;;7.10;99.90;;;;;;5049195;28;20210;-90
2023/11/07 02:56:23;;;;;;;2.28;1.10;;;7.10;99.90;;;;;;5044517;28;20198;-89
2023/11/07 02:58:49;;;;;;;2.28;1.27;;;7.00;99.90;;;;;;5029361;28;20710;-89
2023/11/07 03:01:19;;;;;;;2.73;1.13;;;7.50;99.90;;;;;;5032105;28;20210;-88
2023/11/07 03:03:45;;;;;;;3.20;1.23;;;7.30;99.90;;;;;;5018598;28;20202;-89
2023/11/07 03:06:11;;;;;;;2.10;1.23;;;7.30;99.90;;;;;;5021441;28;20187;-90
2023/11/07 03:08:36;;;;;;;1.13;1.00;;;7.50;99.90;;;;;;5025352;28;20178;-89
2023/11/07 03:11:02;;;;;;;1.50;1.40;;;7.30;99.90;;;;;;5034704;28;20193;-89
2023/11/07 03:13:27;;;;;;;1.73;1.37;;;7.50;99.90;;;;;;5031303;28;20214;-89
2023/11/07 03:15:53;;;;;;;3.43;1.50;;;7.40;99.90;;;;;;5021787;28;20200;-90
2023/11/07 03:18:18;;;;;;;2.57;1.23;;;8.00;99.90;;;;;;5031604;28;20182;-89
2023/11/07 03:20:44;;;;;;;2.10;1.07;;;8.00;99.90;;;;;;5021577;28;20232;-90
2023/11/07 03:23:09;;;;;;;1.20;1.10;;;7.90;99.90;;;;;;5043043;28;20221;-90
2023/11/07 03:25:35;;;;;;;1.57;1.20;;;8.20;99.90;;;;;;5044097;28;20182;-90
2023/11/07 03:28:00;;;;;;;2.10;1.23;;;7.90;99.90;;;;;;5045678;28;20190;-89
2023/11/07 03:30:26;;;;;;;2.17;1.00;;;7.60;99.90;;;;;;5038434;28;20198;-89
2023/11/07 03:32:51;;;;;;;1.20;1.10;;;7.50;99.90;;;;;;5030145;28;20676;-89
2023/11/07 03:35:17;;;;;;;2.93;1.33;;;7.10;99.90;;;;;;5035022;28;20193;-87
2023/11/07 03:37:43;;;;;;;1.43;1.00;;;7.70;99.90;;;;;;5041956;28;20214;-89
2023/11/07 03:40:10;;;;;;;1.40;1.30;;;7.50;99.90;;;;;;5016387;28;20407;-89
2023/11/07 03:42:36;;;;;;;4.65;1.30;;;7.60;99.90;;;;;;5020609;28;20484;-89
2023/11/07 03:45:01;;;;;;;1.93;1.27;;;7.60;99.90;;;;;;5014554;28;20659;-88
2023/11/07 03:47:27;;;;;;;1.10;0.90;;;7.60;99.90;;;;;;5030122;28;20179;-89
2023/11/07 03:49:54;;;;;;;1.13;1.03;;;7.70;99.90;;;;;;5020481;28;20190;-89
2023/11/07 03:52:20;;;;;;;1.60;1.00;;;7.60;99.90;;;;;;5022123;28;20190;-89
2023/11/07 03:54:45;;;;;;;0.80;0.80;;;7.60;99.90;;;;;;5010528;28;20595;-89
2023/11/07 03:57:11;;;;;;;2.53;1.40;;;7.80;99.90;;;;;;5031359;28;20193;-89
2023/11/07 03:59:36;;;;;;;1.50;1.10;;;7.60;99.90;;;;;;5015881;28;20307;-89
2023/11/07 04:02:04;;;;;;;1.63;1.30;;;7.80;99.90;;;;;;5031182;28;20697;-89
2023/11/07 04:04:30;;;;;;;1.33;1.20;;;7.40;99.90;;;;;;5022896;28;20244;-89
2023/11/07 04:06:55;;;;;;;2.07;1.03;;;7.70;99.90;;;;;;5040540;28;20187;-88
2023/11/07 04:09:21;;;;;;;1.10;1.00;;;7.50;99.90;;;;;;5031181;28;20793;-89
2023/11/07 04:11:47;;;;;;;1.40;1.30;;;7.10;99.90;;;;;;5057599;28;20174;-88
2023/11/07 04:14:17;;;;;;;4.27;1.53;;;7.30;99.90;;;;;;5054594;28;20183;-89
2023/11/07 04:16:44;;;;;;;1.63;1.20;;;7.40;99.90;;;;;;5048756;28;20197;-89
2023/11/07 04:19:11;;;;;;;2.42;1.17;;;7.50;99.90;;;;;;5026692;28;20569;-89
2023/11/07 04:21:37;;;;;;;1.90;1.35;;;7.70;99.90;;;;;;5034044;28;20241;-88
2023/11/07 04:24:05;;;;;;;4.67;1.17;;;7.30;99.90;;;;;;5034651;28;20199;-89
2023/11/07 04:26:31;;;;;;;1.95;1.30;;;7.40;99.90;;;;;;5037619;28;20611;-88
2023/11/07 04:28:57;;;;;;;1.13;1.02;;;7.60;99.90;;;;;;5022047;28;20186;-90
2023/11/07 04:31:23;;;;;;;3.03;1.47;;;7.90;99.90;;;;;;5036648;28;20190;-88
2023/11/07 04:33:48;;;;;;;0.90;0.90;;;7.00;99.90;;;;;;5022154;28;20556;-87
2023/11/07 04:36:16;;;;;;;1.30;1.20;;;7.60;99.90;;;;;;5038694;28;21013;-87
2023/11/07 04:38:43;;;;;;;2.83;1.50;;;7.40;99.90;;;;;;5044742;28;20436;-90
2023/11/07 04:41:09;;;;;;;1.90;1.02;;;7.60;99.90;;;;;;5036293;28;21002;-89
2023/11/07 04:43:35;;;;;;;2.10;1.00;;;7.30;99.90;;;;;;5021641;28;20764;-90
2023/11/07 04:46:02;;;;;;;2.00;1.27;;;7.30;99.90;;;;;;5034681;28;20225;-88
2023/11/07 04:48:30;;;;;;;3.35;1.05;;;7.30;99.90;;;;;;5038233;28;20438;-90
2023/11/07 04:50:57;;;;;;;4.13;1.23;;;7.30;99.90;;;;;;5009755;28;20592;-89
2023/11/07 04:53:23;;;;;;;1.77;1.05;;;7.70;99.90;;;;;;5005754;28;20205;-90
2023/11/07 04:55:49;;;;;;;1.03;0.93;;;7.40;99.90;;;;;;5046383;28;20186;-89
2023/11/07 04:58:14;;;;;;;0.87;0.80;;;7.80;99.90;;;;;;5057470;28;20170;-90
2023/11/07 05:00:40;;;;;;;2.20;1.03;;;7.50;99.90;;;;;;5026549;28;20440;-90
2023/11/07 05:03:06;;;;;;;1.23;0.90;;;7.20;99.90;;;;;;5034361;28;20629;-90
2023/11/07 05:05:32;;;;;;;2.07;1.50;;;7.30;99.90;;;;;;5035108;28;20208;-89
2023/11/07 05:07:57;;;;;;;3.50;1.10;;;7.70;99.90;;;;;;5028276;28;20218;-90
2023/11/07 05:10:23;;;;;;;3.80;1.30;;;7.20;99.90;;;;;;5035360;28;20178;-90
2023/11/07 05:12:49;;;;;;;1.63;1.50;;;7.40;99.90;;;;;;5021411;28;22366;-90
2023/11/07 05:15:15;;;;;;;1.50;1.10;;;7.50;99.90;;;;;;5032257;28;20697;-90
2023/11/07 05:17:40;;;;;;;1.37;1.10;;;7.70;99.90;;;;;;5055775;28;20182;-89
2023/11/07 05:20:09;;;;;;;1.43;1.00;;;7.80;99.90;;;;;;5043810;28;20240;-90
2023/11/07 05:22:36;;;;;;;2.58;1.30;;;7.60;99.90;;;;;;5013178;28;20225;-88
2023/11/07 05:25:05;;;;;;;1.63;1.08;;;7.80;99.90;;;;;;5031758;28;20182;-89
2023/11/07 05:27:31;;;;;;;1.55;1.38;;;7.40;99.90;;;;;;5031270;28;20194;-89
2023/11/07 05:29:56;;;;;;;2.20;1.43;;;7.20;99.90;;;;;;5013644;28;20767;-90
2023/11/07 05:32:22;;;;;;;1.70;1.40;;;7.30;99.90;;;;;;5031090;28;20316;-88
2023/11/07 05:34:47;;;;;;;1.33;1.23;;;7.70;99.90;;;;;;5014741;28;20229;-87
2023/11/07 05:37:14;;;;;;;1.57;1.47;;;7.20;99.90;;;;;;5034621;28;20643;-87
2023/11/07 05:39:39;;;;;;;1.67;1.38;;;7.40;99.90;;;;;;5035888;28;20185;-88
2023/11/07 05:42:06;;;;;;;2.07;1.40;;;7.70;99.90;;;;;;5018859;28;20228;-88
2023/11/07 05:44:32;;;;;;;2.40;1.20;;;7.30;99.90;;;;;;5028087;28;20245;-88
2023/11/07 05:46:57;;;;;;;1.90;1.30;;;7.60;99.90;;;;;;5031965;28;20727;-88
2023/11/07 05:49:23;;;;;;;4.00;1.60;;;7.50;99.90;;;;;;5030672;28;20953;-88
2023/11/07 05:51:49;;;;;;;2.00;1.40;;;7.80;99.90;;;;;;5019490;28;20553;-88
2023/11/07 05:54:15;;;;;;;2.07;1.47;;;7.50;99.90;;;;;;5032826;28;20304;-88
2023/11/07 05:56:40;;;;;;;1.65;1.20;;;7.70;99.90;;;;;;5014156;28;20194;-88
2023/11/07 05:59:07;;;;;;;2.77;2.37;;;7.50;99.90;;;;;;5016941;28;20550;-88
2023/11/07 06:01:33;;;;;;;1.88;1.42;;;7.90;99.90;;;;;;5020886;28;20252;-88
2023/11/07 06:03:59;;;;;;;3.67;1.60;;;7.30;99.90;;;;;;5029987;28;20296;-87
2023/11/07 06:06:25;;;;;;;2.20;1.40;;;7.80;99.90;;;;;;5024002;28;20712;-88
2023/11/07 06:08:51;;;;;;;1.70;1.60;;;7.40;99.90;;;;;;5019389;28;20191;-88
2023/11/07 06:11:17;;;;;;;1.60;1.40;;;7.90;99.90;;;;;;5034084;28;20522;-88
2023/11/07 06:13:43;;;;;;;1.63;1.37;;;7.50;99.90;;;;;;5004344;28;20778;-87
2023/11/07 06:16:09;;;;;;;1.50;1.40;;;7.90;99.90;;;;;;5022658;28;20473;-88
2023/11/07 06:18:34;;;;;;;1.97;1.37;;;7.50;99.90;;;;;;5049258;28;20672;-88
2023/11/07 06:21:00;;;;;;;1.70;1.10;;;7.70;99.90;;;;;;5011806;28;20415;-87
2023/11/07 06:23:26;;;;;;;2.30;1.70;;;8.10;99.90;;;;;;5033955;28;20206;-88
2023/11/07 06:25:52;;;;;;;3.07;1.83;;;7.60;99.90;;;;;;5026372;28;20186;-87
2023/11/07 06:28:28;;;;;;;1.60;1.20;;;7.70;99.90;;;;;;5035114;28;20190;-89
2023/11/07 06:30:54;;;;;;;2.20;2.00;;;7.50;99.90;;;;;;5015402;28;20678;-88
2023/11/07 06:33:19;;;;;;;1.80;1.60;;;7.70;99.90;;;;;;5032671;28;20199;-89
2023/11/07 06:35:45;;;;;;;2.97;2.10;;;7.60;99.90;;;;;;5033956;28;20330;-90
2023/11/07 06:38:11;;;;;;;2.90;1.70;;;8.00;99.90;;;;;;5032657;28;20189;-89
2023/11/07 06:40:36;;;;;;;2.20;1.80;;;7.60;99.90;;;;;;5022538;28;20282;-89
2023/11/07 06:43:03;;;;;;;2.07;1.90;;;7.90;99.90;;;;;;5030127;28;20290;-89
2023/11/07 06:45:29;;;;;;;3.75;1.95;;;7.60;99.90;;;;;;5031705;28;20208;-88
2023/11/07 06:47:55;;;;;;;4.23;2.40;;;7.90;99.90;;;;;;5027334;28;20257;-88
2023/11/07 06:50:20;;;;;;;1.70;1.60;;;7.70;99.90;;;;;;5041710;28;20408;-88
2023/11/07 06:52:50;;;;;;;2.00;1.90;;;7.70;99.90;;;;;;5051309;28;20288;-89
2023/11/07 06:55:19;;;;;;;2.53;2.25;;;8.20;99.90;;;;;;5046890;28;20210;-89
2023/11/07 06:57:44;;;;;;;1.80;1.70;;;7.80;99.90;;;;;;5031142;28;20193;-89
2023/11/07 07:00:12;;;;;;;3.67;1.60;;;8.20;99.90;;;;;;5026073;28;20221;-89
2023/11/07 07:02:40;;;;;;;1.92;1.70;;;7.80;99.90;;;;;;5030032;28;20467;-89
2023/11/07 07:05:10;;;;;;;1.92;1.83;;;8.00;99.90;;;;;;5031482;28;20245;-88
2023/11/07 07:07:36;;;;;;;2.40;1.50;;;8.00;99.90;;;;;;5016689;28;20244;-88
2023/11/07 07:10:01;;;;;;;1.40;1.27;;;8.20;99.90;;;;;;5037118;28;20179;-89
2023/11/07 07:12:27;;;;;;;1.97;1.57;;;8.70;99.90;;;;;;5019731;28;20182;-89
2023/11/07 07:14:53;;;;;;;3.20;1.97;;;8.50;99.90;;;;;;5035575;28;20183;-88
2023/11/07 07:17:19;;;;;;;3.87;2.00;;;8.50;99.90;;;;;;5035483;28;20185;-88
2023/11/07 07:19:49;;;;;;;2.50;2.13;;;8.30;99.90;;;;;;5033665;28;20174;-87
2023/11/07 07:22:14;;;;;;;2.65;1.85;;;8.90;99.90;;;;;;5039459;28;20230;-88
2023/11/07 07:24:40;;;;;;;1.80;1.70;;;8.40;99.90;;;;;;5036274;28;20316;-87
2023/11/07 07:27:08;;;;;;;1.63;1.53;;;8.70;99.90;;;;;;5026521;28;20175;-87
2023/11/07 07:29:34;;;;;;;3.22;2.08;;;8.30;99.90;;;;;;5051776;28;20423;-88
2023/11/07 07:32:02;;;;;;;1.60;1.50;;;8.80;99.90;;;;;;5029247;28;20183;-87
2023/11/07 07:34:28;;;;;;;1.45;1.33;;;8.40;99.90;;;;;;5043608;28;20218;-88
2023/11/07 07:36:54;;;;;;;3.10;1.47;;;8.50;99.90;;;;;;5038715;28;20200;-87
2023/11/07 07:39:28;;;;;;;1.50;1.37;;;8.80;99.90;;;;;;5016369;28;20336;-88
2023/11/07 07:42:08;;;;;;;2.08;1.63;;;9.10;99.90;;;;;;5035118;28;20218;-88
2023/11/07 07:44:35;;;;;;;1.55;1.30;;;9.20;99.90;;;;;;5029792;28;20298;-84
2023/11/07 07:47:01;;;;;;;1.65;1.52;;;8.80;99.90;;;;;;5041687;28;20201;-84
2023/11/07 07:49:30;;;;;;;2.67;2.28;;;9.60;99.90;;;;;;5036140;28;20198;-84
2023/11/07 07:52:08;;;;;;;0.90;0.90;;;9.60;99.90;;;;;;5043200;28;20183;-84
2023/11/07 07:54:37;;;;;;;1.20;1.10;;;9.30;99.90;;;;;;5045160;28;20214;-86
2023/11/07 07:57:05;;;;;;;1.33;1.00;;;9.70;99.90;;;;;;5043246;28;20183;-84
2023/11/07 07:59:32;;;;;;;1.15;1.05;;;9.80;99.90;;;;;;5048235;28;20187;-88
2023/11/07 08:01:57;;;;;;;3.47;1.38;;;10.20;99.90;;;;;;5032340;28;20576;-88
2023/11/07 08:04:32;;;;;;;3.20;1.30;;;10.60;99.90;;;;;;5021291;28;20208;-89
2023/11/07 08:06:58;;;;;;;2.25;1.10;;;10.60;99.90;;;;;;5016630;28;20180;-89
2023/11/07 08:09:26;;;;;;;1.10;1.00;;;10.60;99.90;;;;;;5031240;28;20242;-89
2023/11/07 08:12:00;;;;;;;1.40;1.05;;;10.50;99.90;;;;;;5020432;28;20659;-89
2023/11/07 08:14:26;;;;;;;1.77;1.00;;;10.70;99.90;;;;;;5014093;28;20208;-89
2023/11/07 08:16:52;;;;;;;2.40;1.33;;;11.30;99.90;;;;;;5038319;28;20184;-90
2023/11/07 08:19:20;;;;;;;2.05;1.08;;;11.50;99.90;;;;;;5021752;28;20314;-89
2023/11/07 08:21:46;;;;;;;2.20;1.00;;;11.20;99.90;;;;;;5016440;28;20295;-89
2023/11/07 08:24:13;;;;;;;6.15;1.75;;;11.60;99.90;;;;;;5035585;28;20216;-89
2023/11/07 08:26:41;;;;;;;1.38;1.27;;;11.40;99.90;;;;;;5025886;28;20221;-91
2023/11/07 08:29:06;;;;;;;1.67;1.02;;;11.70;99.90;;;;;;5041534;28;20181;-89
2023/11/07 08:31:36;;;;;;;2.03;1.23;;;11.40;99.90;;;;;;5021592;28;20190;-89
2023/11/07 08:34:04;;;;;;;1.17;1.00;;;11.50;99.90;;;;;;5306203;22;20230;-89
2023/11/07 08:36:34;;;;;;;2.28;2.00;;;11.70;99.90;;;;;;5022117;28;20200;-89
2023/11/07 08:38:59;;;;;;;1.42;0.93;;;11.50;99.90;;;;;;5024219;28;20190;-89
2023/11/07 08:41:25;;;;;;;1.40;0.80;;;12.40;99.90;;;;;;5032316;28;20693;-90
2023/11/07 08:43:51;;;;;;;2.57;1.00;;;12.00;99.90;;;;;;5025108;28;20214;-91
2023/11/07 08:46:23;;;;;;;0.88;0.88;;;12.20;99.90;;;;;;5019647;28;20253;-91
2023/11/07 08:48:50;;;;;;;0.90;0.80;;;12.40;99.90;;;;;;5018921;28;20563;-90
2023/11/07 08:51:16;;;;;;;1.10;1.00;;;12.60;99.90;;;;;;5017084;28;20325;-89
2023/11/07 08:53:45;;;;;;;1.23;0.80;;;12.70;99.90;;;;;;4999230;28;20245;-90
2023/11/07 08:56:14;;;;;;;0.95;0.85;;;12.20;99.90;;;;;;5017908;28;20878;-90
2023/11/07 08:58:40;;;;;;;1.58;0.90;;;12.30;99.90;;;;;;5024874;28;20189;-90
2023/11/07 09:01:09;;;;;;;2.33;1.15;;;12.30;99.90;;;;;;5037510;28;20183;-90
2023/11/07 09:03:35;;;;;;;1.00;0.70;;;12.20;99.90;;;;;;5034431;28;20204;-90
2023/11/07 09:06:01;;;;;;;1.40;0.90;;;12.00;99.90;;;;;;5037766;28;20174;-89
2023/11/07 09:08:27;;;;;;;1.60;1.00;;;13.30;99.90;;;;;;5023742;28;20259;-89
2023/11/07 09:10:54;;;;;;;1.20;1.00;;;13.90;99.90;;;;;;5018910;28;20190;-88
2023/11/07 09:13:20;;;;;;;0.93;0.85;;;11.90;99.90;;;;;;5014054;28;20202;-89
2023/11/07 09:15:46;;;;;;;1.00;0.90;;;12.60;99.90;;;;;;5015255;28;20226;-88
2023/11/07 09:18:12;;;;;;;1.50;1.00;;;12.10;99.90;;;;;;5036657;28;20225;-88
2023/11/07 09:20:42;;;;;;;0.90;0.70;;;12.70;99.90;;;;;;5031326;28;20193;-88
2023/11/07 09:25:35;;;;;;;2.85;0.98;;;10.90;99.90;;;;;;5052683;28;20225;-90
2023/11/07 09:28:03;;;;;;;1.30;0.97;;;12.40;99.90;;;;;;5036151;28;20187;-90
2023/11/07 09:30:45;;;;;;;2.20;0.90;;;14.20;99.90;;;;;;5047525;28;20186;-90
2023/11/07 09:40:01;;;;;;;3.33;0.90;;;13.10;99.80;;;;;;4992048;28;20718;-91
2023/11/07 09:45:15;;;;;;;1.30;1.00;;;13.30;99.40;;;;;;5674787;22;20249;-92
2023/11/07 09:47:47;;;;;;;1.02;1.02;;;13.00;99.10;;;;;;5033506;28;20185;-92
2023/11/07 09:50:16;;;;;;;3.70;2.80;;;13.30;98.80;;;;;;5034897;28;20196;-92
2023/11/07 09:52:59;;;;;;;;;;;;;;;;;;;;;
2023/11/07 09:55:53;;;;;;;;;;;;;;;;;;;;;
2023/11/07 09:58:27;;;;;;;1.90;1.50;;;13.80;98.20;;;;;;4966464;28;20202;-91
2023/11/07 10:01:46;;;;;;;2.65;0.82;;;14.90;98.30;;;;;;5035601;28;20181;-91
2023/11/07 10:04:45;;;;;;;0.77;0.70;;;14.70;97.50;;;;;;5030368;28;20631;-91
2023/11/07 10:07:26;;;;;;;3.83;0.70;;;14.10;97.30;;;;;;5032772;28;20185;-89
2023/11/07 10:10:10;;;;;;;0.80;0.80;;;14.50;97.00;;;;;;5034284;28;20269;-89
2023/11/07 10:12:39;;;;;;;1.05;0.98;;;14.00;96.40;;;;;;5053185;28;20178;-90
2023/11/07 10:15:16;;;;;;;1.00;0.80;;;16.70;98.70;;;;;;5042958;28;20182;-90
2023/11/07 10:18:16;;;;;;;0.70;0.70;;;15.80;97.80;;;;;;5074736;28;20253;-88
2023/11/07 10:20:50;;;;;;;2.20;1.00;;;14.20;96.30;;;;;;5032345;28;20565;-88
2023/11/07 10:23:18;;;;;;;1.05;0.82;;;13.60;96.10;;;;;;5028388;28;20241;-89
2023/11/07 10:25:49;;;;;;;0.80;0.68;;;13.50;96.30;;;;;;5033527;28;20260;-90
2023/11/07 10:28:18;;;;;;;2.38;0.70;;;13.30;96.40;;;;;;5034760;28;20173;-89
2023/11/07 10:30:45;;;;;;;2.75;1.10;;;14.40;96.90;;;;;;5026595;28;20572;-89
2023/11/07 10:35:54;;;;;;;1.95;0.80;;;12.20;95.10;;;;;;5071471;22;20709;-90
2023/11/07 10:38:46;;;;;;;1.42;0.65;;;12.80;95.80;;;;;;5037228;28;20173;-90
2023/11/07 10:41:26;;;;;;;1.00;0.90;;;13.90;96.40;;;;;;5052493;28;20293;-89
2023/11/07 10:47:16;;;;;;;1.35;0.65;;;14.40;96.50;;;;;;5054599;28;20172;-89
2023/11/07 10:50:14;;;;;;;;;;;;;;;;;;;;;
2023/11/07 10:56:15;;;;;;;1.17;0.80;;;15.00;95.30;;;;;;4974119;28;20247;-90
2023/11/07 10:58:45;;;;;;;0.90;0.70;;;15.20;95.20;;;;;;5038943;28;20680;-90
2023/11/07 11:01:13;;;;;;;1.70;0.70;;;14.90;95.30;;;;;;5030938;28;20631;-90
2023/11/07 11:03:44;;;;;;;0.90;0.70;;;16.10;95.80;;;;;;5028587;28;20251;-88
2023/11/07 11:06:14;;;;;;;2.75;2.00;;;14.40;95.10;;;;;;5033109;28;20639;-89
2023/11/07 11:08:43;;;;;;;1.08;0.70;;;16.10;96.80;;;;;;5033771;28;20190;-88
2023/11/07 11:11:12;;;;;;;1.15;0.60;;;13.70;96.20;;;;;;5052029;28;20520;-89
2023/11/07 11:13:41;;;;;;;1.13;1.02;;;13.50;96.70;;;;;;5032290;28;20293;-89
2023/11/07 11:16:08;;;;;;;1.63;0.68;;;13.90;98.00;;;;;;5032603;28;24076;-89
2023/11/07 11:18:48;;;;;;;2.03;0.95;;;13.70;98.70;;;;;;5030568;28;20181;-88
2023/11/07 11:21:25;;;;;;;1.75;1.40;;;13.10;99.40;;;;;;5032269;28;20212;-89
2023/11/07 11:24:05;;;;;;;2.70;0.70;;;13.20;99.90;;;;;;5029658;28;20251;-89
2023/11/07 11:26:43;;;;;;;0.80;0.80;;;12.90;99.90;;;;;;5032882;28;20231;-89
2023/11/07 11:29:26;;;;;;;1.60;0.90;;;12.70;99.90;;;;;;5046022;28;20199;-85
2023/11/07 11:31:53;;;;;;;1.33;1.10;;;12.20;99.90;;;;;;5053379;28;20196;-85
2023/11/07 11:34:25;;;;;;;2.55;1.02;;;13.20;99.90;;;;;;5053487;28;20205;-85
2023/11/07 11:36:59;;;;;;;1.40;1.10;;;13.50;99.90;;;;;;5049920;28;20188;-85
2023/11/07 11:39:45;;;;;;;1.00;0.90;;;12.50;99.90;;;;;;5044858;28;20189;-85
2023/11/07 11:42:11;;;;;;;2.17;1.27;;;12.50;99.90;;;;;;5045002;28;20231;-83
2023/11/07 11:44:38;;;;;;;1.20;1.10;;;12.20;99.90;;;;;;5038694;28;20198;-85
2023/11/07 11:47:04;;;;;;;1.20;1.10;;;12.40;99.90;;;;;;5040446;28;20201;-85
2023/11/07 11:49:30;;;;;;;2.63;1.92;;;12.50;99.90;;;;;;5055499;28;20247;-84
2023/11/07 11:51:57;;;;;;;1.00;0.80;;;12.40;99.90;;;;;;5039255;28;20296;-84
2023/11/07 11:54:22;;;;;;;1.75;0.82;;;12.30;99.90;;;;;;5045589;28;20296;-85
2023/11/07 11:56:48;;;;;;;1.00;0.87;;;12.70;99.90;;;;;;5063153;28;20193;-84
2023/11/07 11:59:16;;;;;;;1.73;1.20;;;12.50;99.90;;;;;;5040445;28;20447;-84
2023/11/07 12:02:04;;;;;;;7.60;6.90;;;12.50;99.90;;;;;;5037661;28;20711;-89
2023/11/07 12:04:32;;;;;;;1.20;1.10;;;12.80;99.90;;;;;;5032293;28;20210;-88
2023/11/07 12:07:07;;;;;;;1.25;1.05;;;15.10;99.90;;;;;;5049256;28;20178;-89
2023/11/07 12:09:37;;;;;;;0.90;0.75;;;14.80;99.90;;;;;;5028346;28;20177;-90
2023/11/07 12:12:05;;;;;;;1.00;0.80;;;15.00;99.90;;;;;;5033974;28;20196;-89
2023/11/07 12:14:36;;;;;;;1.10;0.82;;;13.50;99.90;;;;;;5029873;28;20276;-89
2023/11/07 12:17:02;;;;;;;2.03;1.42;;;14.50;99.90;;;;;;5029970;28;20178;-89
2023/11/07 12:19:30;;;;;;;0.90;0.83;;;13.00;99.90;;;;;;5034861;28;20254;-89
2023/11/07 12:21:57;;;;;;;1.25;0.95;;;13.10;99.90;;;;;;5030592;28;20206;-89
2023/11/07 12:24:23;;;;;;;1.05;0.90;;;12.70;99.90;;;;;;5049487;28;20208;-89
2023/11/07 12:26:49;;;;;;;1.83;1.42;;;13.50;99.90;;;;;;5031994;28;20716;-89
2023/11/07 12:29:28;;;;;;;0.90;0.75;;;13.60;99.90;;;;;;5027171;28;20247;-89
2023/11/07 12:31:54;;;;;;;0.63;0.60;;;13.60;99.90;;;;;;5035098;28;20241;-90
2023/11/07 12:34:36;;;;;;;1.33;1.10;;;14.00;99.90;;;;;;5032376;28;20213;-90
2023/11/07 12:37:15;;;;;;;0.90;0.70;;;13.80;99.90;;;;;;5031728;28;20235;-93
2023/11/07 12:39:42;;;;;;;2.90;0.88;;;13.60;99.10;;;;;;5014514;28;20196;-91
2023/11/07 12:42:08;;;;;;;1.02;0.60;;;14.00;99.90;;;;;;5032656;28;20273;-91
2023/11/07 12:44:35;;;;;;;1.35;1.13;;;14.30;99.20;;;;;;5715409;23;20225;-91
2023/11/07 12:47:00;;;;;;;1.50;1.23;;;14.10;98.40;;;;;;5051331;28;20185;-91
2023/11/07 12:49:27;;;;;;;1.43;0.60;;;13.80;98.10;;;;;;5009845;28;20178;-90
2023/11/07 12:51:57;;;;;;;0.80;0.77;;;13.70;97.50;;;;;;5012048;28;20210;-91
2023/11/07 12:54:29;;;;;;;1.23;0.70;;;13.80;97.10;;;;;;4968402;28;20218;-91
2023/11/07 12:56:55;;;;;;;1.23;0.57;;;13.80;97.40;;;;;;4995548;28;20326;-91
2023/11/07 12:59:33;;;;;;;;;;;;;;;;;;;;;
2023/11/07 13:02:00;;;;;;;1.00;0.70;;;13.20;97.40;;;;;;5001876;28;20226;-90
2023/11/07 13:04:27;;;;;;;1.00;0.60;;;13.90;98.20;;;;;;5005031;28;20318;-90
2023/11/07 13:07:23;;;;;;;1.08;0.98;;;12.20;97.90;;;;;;4994986;28;20218;-90
2023/11/07 13:09:50;;;;;;;1.23;0.70;;;13.40;98.30;;;;;;5018386;28;20258;-90
2023/11/07 13:17:34;;;;;;;1.80;0.82;;;11.80;97.40;;;;;;5516875;22;20571;-90
2023/11/07 13:19:59;;;;;;;0.93;0.80;;;13.00;99.00;;;;;;5032518;28;20282;-90
2023/11/07 13:22:25;;;;;;;1.40;0.63;;;13.50;99.30;;;;;;5035607;28;20554;-90
2023/11/07 13:26:07;;;;;;;;;;;;;;;;;;;;;
2023/11/07 13:35:07;;;;;;;0.70;0.60;;;13.00;98.10;;;;;;5131146;22;20238;-88
2023/11/07 13:37:34;;;;;;;0.80;0.60;;;13.00;98.10;;;;;;4996273;28;20183;-88